createdAt,value
2022-10-21T00:00:56.790Z,8.04
2022-10-21T00:03:26.264Z,8.06
2022-10-21T00:05:55.856Z,8.09
2022-10-21T00:08:24.603Z,8.10
2022-10-21T00:10:53.032Z,8.14
2022-10-21T00:13:21.701Z,8.14
2022-10-21T00:15:59.148Z,8.17
2022-10-21T00:18:27.173Z,8.20
2022-10-21T00:20:56.710Z,8.27
2022-10-21T00:23:24.876Z,8.22
2022-10-21T00:25:57.232Z,8.20
2022-10-21T00:28:25.271Z,8.23
2022-10-21T00:30:53.233Z,8.17
2022-10-21T00:33:21.209Z,8.11
2022-10-21T00:35:52.196Z,8.12
2022-10-21T00:40:54.784Z,8.04
2022-10-21T00:43:22.994Z,8.00
2022-10-21T00:45:53.857Z,8.01
2022-10-21T00:48:29.178Z,8.00
2022-10-21T00:51:01.993Z,7.98
2022-10-21T00:53:33.263Z,7.99
2022-10-21T00:56:04.879Z,8.07
2022-10-21T00:58:34.881Z,8.06
2022-10-21T01:01:04.658Z,8.07
2022-10-21T01:03:33.563Z,8.09
2022-10-21T01:06:04.022Z,8.09
2022-10-21T01:08:33.428Z,8.07
2022-10-21T01:11:02.429Z,8.09
2022-10-21T01:13:40.692Z,8.07
2022-10-21T01:16:18.054Z,8.08
2022-10-21T01:18:53.307Z,8.10
2022-10-21T01:21:32.984Z,8.13
2022-10-21T01:24:48.918Z,8.15
2022-10-21T01:27:28.345Z,8.21
2022-10-21T01:30:40.831Z,8.26
2022-10-21T01:33:24.587Z,8.28
2022-10-21T01:35:58.861Z,8.26
2022-10-21T01:38:35.528Z,8.28
2022-10-21T01:41:14.505Z,8.30
2022-10-21T01:43:50.945Z,8.34
2022-10-21T01:46:26.882Z,8.31
2022-10-21T01:49:00.766Z,8.32
2022-10-21T01:51:29.983Z,8.32
2022-10-21T01:54:03.765Z,8.32
2022-10-21T01:56:32.920Z,8.28
2022-10-21T01:59:03.868Z,8.29
2022-10-21T02:01:36.190Z,8.25
2022-10-21T02:04:06.728Z,8.28
2022-10-21T02:06:34.679Z,8.27
2022-10-21T02:09:02.970Z,8.27
2022-10-21T02:11:33.401Z,8.29
2022-10-21T02:14:06.185Z,8.31
2022-10-21T02:16:39.174Z,8.35
2022-10-21T02:19:07.621Z,8.35
2022-10-21T02:21:37.194Z,8.35
2022-10-21T02:24:13.529Z,8.24
2022-10-21T02:26:41.611Z,8.24
2022-10-21T02:29:10.384Z,8.22
2022-10-21T02:31:51.790Z,8.23
2022-10-21T02:34:30.124Z,8.20
2022-10-21T02:37:07.833Z,8.15
2022-10-21T02:39:40.841Z,8.10
2022-10-21T02:42:14.576Z,8.14
2022-10-21T02:44:42.496Z,8.17
2022-10-21T02:49:45.164Z,8.16
2022-10-21T02:52:13.303Z,8.20
2022-10-21T02:54:41.256Z,8.21
2022-10-21T02:57:09.252Z,8.28
2022-10-21T02:59:37.185Z,8.27
2022-10-21T03:02:05.505Z,8.29
2022-10-21T03:04:34.846Z,8.33
2022-10-21T03:07:02.890Z,8.31
2022-10-21T03:09:30.818Z,8.33
2022-10-21T03:11:58.740Z,8.27
2022-10-21T03:14:26.804Z,8.26
2022-10-21T03:16:54.785Z,8.24
2022-10-21T03:19:22.720Z,8.21
2022-10-21T03:21:52.040Z,8.20
2022-10-21T03:24:28.563Z,8.25
2022-10-21T03:26:57.238Z,8.29
2022-10-21T03:29:25.305Z,8.29
2022-10-21T03:31:53.386Z,8.31
2022-10-21T03:34:21.344Z,8.31
2022-10-21T03:36:49.345Z,8.34
2022-10-21T03:39:18.631Z,8.35
2022-10-21T03:41:46.625Z,8.33
2022-10-21T03:44:14.581Z,8.26
2022-10-21T03:46:42.553Z,8.25
2022-10-21T03:49:18.443Z,8.21
2022-10-21T03:51:49.576Z,8.20
2022-10-21T03:54:19.123Z,8.17
2022-10-21T03:56:47.255Z,8.17
2022-10-21T03:59:15.402Z,8.14
2022-10-21T04:01:43.425Z,8.10
2022-10-21T04:04:11.513Z,8.03
2022-10-21T04:06:39.443Z,7.96
2022-10-21T04:09:07.455Z,7.95
2022-10-21T04:11:36.830Z,7.95
2022-10-21T04:14:04.971Z,7.96
2022-10-21T04:16:33.721Z,7.95
2022-10-21T04:19:02.218Z,7.86
2022-10-21T04:21:30.198Z,7.87
2022-10-21T04:23:58.636Z,7.84
2022-10-21T04:26:26.605Z,7.87
2022-10-21T04:28:55.907Z,7.86
2022-10-21T04:31:25.050Z,7.88
2022-10-21T04:33:54.550Z,7.90
2022-10-21T04:36:22.628Z,7.82
2022-10-21T04:38:50.592Z,7.86
2022-10-21T04:41:18.568Z,7.85
2022-10-21T04:43:46.523Z,7.79
2022-10-21T04:46:17.024Z,7.81
2022-10-21T04:48:45.152Z,7.79
2022-10-21T04:51:13.188Z,7.77
2022-10-21T04:53:41.205Z,7.79
2022-10-21T04:56:09.167Z,7.72
2022-10-21T04:58:37.291Z,7.72
2022-10-21T05:01:05.775Z,7.67
2022-10-21T05:03:35.175Z,7.72
2022-10-21T05:06:03.155Z,7.73
2022-10-21T05:08:31.173Z,7.78
2022-10-21T05:11:00.263Z,7.68
2022-10-21T05:13:28.417Z,7.71
2022-10-21T05:15:59.081Z,7.69
2022-10-21T05:18:27.134Z,7.65
2022-10-21T05:20:57.584Z,7.65
2022-10-21T05:23:27.004Z,7.66
2022-10-21T05:25:55.098Z,7.65
2022-10-21T05:28:23.697Z,7.61
2022-10-21T05:30:51.706Z,7.63
2022-10-21T05:33:19.748Z,7.60
2022-10-21T05:35:57.995Z,7.55
2022-10-21T05:38:25.942Z,7.53
2022-10-21T05:40:53.985Z,7.50
2022-10-21T05:43:21.989Z,7.55
2022-10-21T05:45:50.200Z,7.55
2022-10-21T05:48:18.467Z,7.57
2022-10-21T05:50:47.044Z,7.62
2022-10-21T05:53:16.442Z,7.62
2022-10-21T05:55:44.474Z,7.62
2022-10-21T05:58:12.419Z,7.65
2022-10-21T06:00:41.596Z,7.67
2022-10-21T06:03:09.608Z,7.66
2022-10-21T06:05:37.532Z,7.68
2022-10-21T06:08:05.979Z,7.72
2022-10-21T06:10:35.428Z,7.77
2022-10-21T06:13:03.384Z,7.79
2022-10-21T06:15:31.385Z,7.84
2022-10-21T06:17:59.355Z,7.89
2022-10-21T06:20:27.338Z,7.90
2022-10-21T06:22:55.358Z,7.87
2022-10-21T06:25:23.835Z,7.90
2022-10-21T06:27:53.430Z,7.89
2022-10-21T06:30:22.961Z,7.89
2022-10-21T06:32:51.091Z,7.89
2022-10-21T06:35:19.054Z,7.90
2022-10-21T06:37:47.039Z,7.82
2022-10-21T06:40:15.044Z,7.96
2022-10-21T06:42:43.025Z,7.98
2022-10-21T06:45:12.709Z,8.03
2022-10-21T06:47:41.173Z,8.05
2022-10-21T06:50:09.692Z,8.07
2022-10-21T06:52:37.739Z,8.08
2022-10-21T06:55:06.546Z,8.13
2022-10-21T06:57:34.816Z,8.03
2022-10-21T07:00:03.082Z,8.20
2022-10-21T07:02:32.482Z,8.32
2022-10-21T07:05:00.472Z,8.38
2022-10-21T07:07:28.518Z,8.42
2022-10-21T07:09:57.758Z,8.47
2022-10-21T07:12:26.363Z,8.51
2022-10-21T07:14:54.776Z,8.54
2022-10-21T07:17:22.727Z,8.60
2022-10-21T07:19:52.128Z,8.65
2022-10-21T07:22:20.117Z,8.72
2022-10-21T07:24:48.124Z,8.72
2022-10-21T07:27:16.181Z,8.73
2022-10-21T07:29:44.192Z,8.74
2022-10-21T07:32:12.167Z,8.77
2022-10-21T07:34:40.231Z,8.75
2022-10-21T07:37:09.617Z,8.75
2022-10-21T07:39:37.596Z,8.77
2022-10-21T07:42:05.643Z,8.79
2022-10-21T07:44:33.678Z,8.80
2022-10-21T07:47:01.698Z,8.84
2022-10-21T07:49:29.728Z,8.84
2022-10-21T07:51:57.952Z,8.85
2022-10-21T07:54:27.342Z,8.84
2022-10-21T07:56:55.312Z,8.86
2022-10-21T07:59:23.819Z,8.70
2022-10-21T08:01:52.888Z,8.86
2022-10-21T08:04:24.600Z,8.89
2022-10-21T08:06:52.528Z,8.86
2022-10-21T08:09:20.591Z,8.86
2022-10-21T08:11:49.934Z,8.86
2022-10-21T08:14:17.939Z,8.87
2022-10-21T08:16:45.990Z,8.88
2022-10-21T08:19:19.833Z,8.92
2022-10-21T08:21:48.495Z,8.97
2022-10-21T08:24:16.624Z,9.11
2022-10-21T08:26:44.619Z,9.21
2022-10-21T08:29:14.012Z,9.37
2022-10-21T08:31:42.040Z,9.57
2022-10-21T08:34:10.180Z,9.65
2022-10-21T08:36:38.622Z,9.74
2022-10-21T08:39:07.381Z,9.79
2022-10-21T08:42:02.863Z,9.87
2022-10-21T08:44:47.788Z,10.04
2022-10-21T08:47:22.388Z,10.05
2022-10-21T08:49:57.388Z,10.11
2022-10-21T08:52:31.913Z,10.17
2022-10-21T08:55:02.246Z,10.18
2022-10-21T08:57:31.922Z,10.25
2022-10-21T09:00:01.312Z,10.35
2022-10-21T09:02:37.029Z,10.41
2022-10-21T09:05:20.505Z,10.52
2022-10-21T09:07:58.175Z,10.58
2022-10-21T09:10:33.133Z,10.64
2022-10-21T09:13:08.161Z,10.70
2022-10-21T09:15:49.372Z,10.74
2022-10-21T09:18:36.086Z,10.75
2022-10-21T09:21:11.871Z,10.82
2022-10-21T09:23:53.179Z,10.90
2022-10-21T09:26:35.549Z,11.01
2022-10-21T09:29:16.901Z,11.09
2022-10-21T09:31:51.357Z,11.21
2022-10-21T09:34:36.017Z,11.25
2022-10-21T09:37:07.866Z,11.17
2022-10-21T09:39:41.988Z,11.25
2022-10-21T09:42:29.195Z,11.23
2022-10-21T09:45:01.316Z,11.31
2022-10-21T09:47:30.639Z,11.30
2022-10-21T09:50:07.291Z,11.39
2022-10-21T09:52:38.431Z,11.47
2022-10-21T09:55:07.776Z,11.58
2022-10-21T09:57:45.687Z,11.59
2022-10-21T10:00:14.291Z,11.56
2022-10-21T10:02:46.419Z,11.49
2022-10-21T10:05:35.469Z,11.56
2022-10-21T10:08:22.021Z,11.64
2022-10-21T10:10:49.997Z,11.64
2022-10-21T10:13:20.216Z,11.65
2022-10-21T10:15:48.226Z,11.79
2022-10-21T10:18:24.503Z,11.93
2022-10-21T10:21:07.655Z,11.98
2022-10-21T10:23:44.201Z,12.04
2022-10-21T10:26:18.064Z,12.02
2022-10-21T10:28:51.661Z,12.08
2022-10-21T10:31:28.373Z,12.10
2022-10-21T10:34:01.987Z,12.30
2022-10-21T10:36:35.107Z,12.38
2022-10-21T10:39:05.588Z,12.39
2022-10-21T10:41:37.465Z,12.50
2022-10-21T10:44:11.883Z,12.68
2022-10-21T10:46:40.568Z,12.78
2022-10-21T10:49:22.584Z,12.83
2022-10-21T10:52:05.771Z,12.94
2022-10-21T10:54:34.221Z,12.97
2022-10-21T10:57:06.459Z,13.02
2022-10-21T10:59:41.030Z,13.07
2022-10-21T11:02:35.924Z,13.22
2022-10-21T11:05:14.640Z,13.23
2022-10-21T11:07:47.285Z,13.29
2022-10-21T11:10:31.313Z,13.29
2022-10-21T11:13:00.250Z,13.28
2022-10-21T11:15:39.093Z,13.34
2022-10-21T11:18:30.427Z,13.33
2022-10-21T11:21:12.003Z,13.42
2022-10-21T11:24:11.746Z,13.50
2022-10-21T11:26:48.644Z,13.57
2022-10-21T11:29:36.135Z,13.60
2022-10-21T11:32:14.926Z,13.72
2022-10-21T11:34:55.268Z,13.81
2022-10-21T11:37:40.553Z,13.88
2022-10-21T11:40:18.672Z,14.03
2022-10-21T11:42:50.621Z,14.05
2022-10-21T11:45:39.867Z,14.12
2022-10-21T11:48:21.271Z,14.20
2022-10-21T11:51:05.200Z,14.32
2022-10-21T11:53:52.275Z,14.41
2022-10-21T11:56:30.283Z,14.47
2022-10-21T11:59:12.444Z,14.51
2022-10-21T12:01:49.240Z,14.52
2022-10-21T12:04:29.186Z,14.52
2022-10-21T12:07:11.644Z,14.64
2022-10-21T12:09:45.298Z,14.69
2022-10-21T12:12:16.676Z,14.74
2022-10-21T12:14:47.972Z,14.83
2022-10-21T12:17:20.161Z,14.92
2022-10-21T12:19:55.699Z,15.03
2022-10-21T12:22:25.636Z,15.05
2022-10-21T12:25:01.645Z,15.10
2022-10-21T12:27:35.187Z,15.09
2022-10-21T12:30:12.931Z,15.17
2022-10-21T12:32:47.226Z,15.15
2022-10-21T12:35:16.430Z,15.18
2022-10-21T12:38:06.203Z,15.24
2022-10-21T12:40:40.853Z,15.19
2022-10-21T12:43:22.378Z,15.26
2022-10-21T12:46:04.673Z,15.28
2022-10-21T12:48:36.375Z,15.36
2022-10-21T12:51:07.141Z,15.42
2022-10-21T12:53:40.426Z,15.39
2022-10-21T12:56:11.446Z,15.45
2022-10-21T12:58:42.640Z,15.37
2022-10-21T13:01:36.258Z,15.26
2022-10-21T13:04:04.655Z,15.23
2022-10-21T13:06:56.463Z,15.28
2022-10-21T13:09:37.635Z,15.30
2022-10-21T13:12:16.682Z,15.28
2022-10-21T13:14:46.894Z,15.32
2022-10-21T13:17:16.581Z,15.37
2022-10-21T13:19:44.637Z,15.37
2022-10-21T13:22:15.652Z,15.48
2022-10-21T13:24:44.462Z,15.56
2022-10-21T13:30:08.970Z,15.57
2022-10-21T13:32:38.435Z,15.60
2022-10-21T13:35:32.748Z,15.67
2022-10-21T13:38:05.587Z,15.61
2022-10-21T13:40:39.830Z,15.65
2022-10-21T13:43:15.858Z,15.75
2022-10-21T13:45:48.970Z,15.67
2022-10-21T13:48:19.878Z,15.54
2022-10-21T13:50:49.638Z,15.39
2022-10-21T13:53:28.502Z,15.24
2022-10-21T13:56:01.921Z,15.21
2022-10-21T13:58:36.088Z,15.12
2022-10-21T14:01:11.701Z,15.03
2022-10-21T14:03:40.507Z,15.08
2022-10-21T14:06:09.783Z,15.02
2022-10-21T14:08:43.559Z,15.06
2022-10-21T14:11:17.408Z,15.04
2022-10-21T14:13:49.021Z,15.05
2022-10-21T14:16:23.259Z,15.06
2022-10-21T14:18:52.264Z,15.01
2022-10-21T14:21:22.987Z,15.14
2022-10-21T14:23:51.337Z,15.15
2022-10-21T14:26:20.189Z,15.13
2022-10-21T14:28:51.001Z,15.07
2022-10-21T14:31:19.424Z,14.99
2022-10-21T14:33:49.614Z,14.99
2022-10-21T14:36:20.542Z,14.95
2022-10-21T14:38:58.746Z,14.87
2022-10-21T14:41:31.411Z,14.87
2022-10-21T14:44:07.709Z,14.85
2022-10-21T14:46:44.099Z,14.76
2022-10-21T14:49:23.658Z,14.77
2022-10-21T14:51:57.357Z,14.72
2022-10-21T14:54:31.543Z,14.66
2022-10-21T14:57:01.361Z,14.57
2022-10-21T14:59:37.058Z,14.51
2022-10-21T15:02:06.064Z,14.46
2022-10-21T15:04:44.152Z,14.38
2022-10-21T15:07:18.909Z,14.31
2022-10-21T15:10:11.089Z,14.27
2022-10-21T15:12:43.987Z,14.20
2022-10-21T15:15:44.184Z,14.14
2022-10-21T15:18:17.492Z,14.06
2022-10-21T15:20:54.534Z,13.99
2022-10-21T15:23:26.771Z,13.92
2022-10-21T15:26:00.324Z,13.88
2022-10-21T15:28:31.209Z,13.81
2022-10-21T15:31:02.381Z,13.77
2022-10-21T15:33:31.359Z,13.72
2022-10-21T15:36:03.809Z,13.65
2022-10-21T15:38:32.035Z,13.55
2022-10-21T15:41:00.078Z,13.47
2022-10-21T15:43:28.132Z,13.39
2022-10-21T15:45:56.147Z,13.30
2022-10-21T15:48:25.512Z,13.26
2022-10-21T15:50:57.147Z,13.19
2022-10-21T15:53:25.611Z,13.17
2022-10-21T15:55:54.974Z,13.13
2022-10-21T15:58:22.992Z,13.08
2022-10-21T16:00:51.067Z,13.01
2022-10-21T16:03:19.130Z,12.91
2022-10-21T16:05:48.508Z,12.85
2022-10-21T16:08:16.465Z,12.79
2022-10-21T16:10:47.732Z,12.74
2022-10-21T16:13:16.393Z,12.69
2022-10-21T16:15:44.422Z,12.64
2022-10-21T16:18:14.329Z,12.62
2022-10-21T16:20:44.524Z,12.56
2022-10-21T16:23:13.840Z,12.51
2022-10-21T16:25:41.855Z,12.47
2022-10-21T16:28:12.095Z,12.42
2022-10-21T16:30:41.750Z,12.39
2022-10-21T16:33:11.067Z,12.35
2022-10-21T16:35:39.178Z,12.31
2022-10-21T16:38:07.196Z,12.28
2022-10-21T16:40:36.890Z,12.22
2022-10-21T16:43:05.001Z,12.19
2022-10-21T16:45:34.012Z,12.13
2022-10-21T16:48:05.026Z,12.08
2022-10-21T16:50:39.574Z,12.03
2022-10-21T16:53:08.172Z,12.01
2022-10-21T16:55:37.537Z,12.04
2022-10-21T16:58:05.514Z,12.01
2022-10-21T17:00:33.847Z,12.07
2022-10-21T17:03:01.970Z,12.04
2022-10-21T17:05:30.128Z,12.03
2022-10-21T17:07:58.712Z,12.01
2022-10-21T17:10:26.671Z,12.01
2022-10-21T17:12:58.945Z,12.01
2022-10-21T17:15:27.708Z,11.99
2022-10-21T17:17:55.897Z,11.99
2022-10-21T17:20:23.971Z,12.00
2022-10-21T17:22:51.931Z,12.01
2022-10-21T17:25:19.993Z,12.01
2022-10-21T17:27:48.030Z,12.09
2022-10-21T17:30:17.721Z,12.19
2022-10-21T17:32:45.948Z,12.18
2022-10-21T17:35:18.706Z,12.16
2022-10-21T17:37:47.714Z,12.31
2022-10-21T17:40:18.362Z,12.34
2022-10-21T17:42:46.886Z,12.34
2022-10-21T17:45:17.866Z,12.43
2022-10-21T17:47:46.281Z,12.44
2022-10-21T17:50:15.247Z,12.44
2022-10-21T17:52:43.599Z,12.45
2022-10-21T17:55:11.682Z,12.56
2022-10-21T17:57:39.642Z,12.64
2022-10-21T18:00:08.869Z,12.68
2022-10-21T18:02:38.654Z,12.82
2022-10-21T18:05:09.879Z,12.84
2022-10-21T18:07:38.166Z,12.93
2022-10-21T18:10:08.043Z,12.95
2022-10-21T18:12:36.687Z,13.01
2022-10-21T18:15:05.814Z,13.05
2022-10-21T18:17:34.529Z,13.10
2022-10-21T18:20:04.228Z,13.10
2022-10-21T18:22:32.170Z,13.12
2022-10-21T18:25:00.131Z,13.12
2022-10-21T18:27:28.134Z,13.14
2022-10-21T18:29:56.073Z,13.15
2022-10-21T18:32:24.090Z,13.16
2022-10-21T18:34:52.059Z,13.15
2022-10-21T18:37:21.918Z,13.15
2022-10-21T18:39:54.318Z,13.12
2022-10-21T18:42:26.182Z,13.12
2022-10-21T18:44:54.273Z,13.10
2022-10-21T18:47:22.215Z,13.11
2022-10-21T18:49:50.956Z,13.12
2022-10-21T18:52:18.902Z,13.08
2022-10-21T18:54:48.294Z,13.10
2022-10-21T18:57:16.314Z,13.12
2022-10-21T18:59:44.309Z,13.13
2022-10-21T19:02:19.736Z,13.20
2022-10-21T19:04:47.704Z,13.24
2022-10-21T19:07:16.212Z,13.29
2022-10-21T19:09:44.158Z,13.30
2022-10-21T19:12:16.399Z,13.30
2022-10-21T19:14:47.962Z,13.30
2022-10-21T19:17:15.997Z,13.29
2022-10-21T19:19:43.957Z,13.29
2022-10-21T19:22:12.227Z,13.32
2022-10-21T19:24:40.173Z,13.37
2022-10-21T19:27:08.167Z,13.33
2022-10-21T19:29:37.564Z,13.34
2022-10-21T19:32:05.769Z,13.34
2022-10-21T19:34:33.705Z,13.40
2022-10-21T19:37:01.729Z,13.40
2022-10-21T19:39:29.721Z,13.39
2022-10-21T19:41:59.358Z,13.38
2022-10-21T19:44:27.343Z,13.41
2022-10-21T19:46:56.659Z,13.42
2022-10-21T19:49:24.644Z,13.38
2022-10-21T19:51:52.645Z,13.40
2022-10-21T19:54:20.602Z,13.38
2022-10-21T19:56:48.631Z,13.36
2022-10-21T20:01:49.680Z,13.36
2022-10-21T20:04:19.038Z,13.34
2022-10-21T20:06:47.815Z,13.36
2022-10-21T20:09:16.489Z,13.33
2022-10-21T20:11:44.567Z,13.35
2022-10-21T20:14:13.714Z,13.37
2022-10-21T20:16:43.170Z,13.37
2022-10-21T20:19:13.412Z,13.25
2022-10-21T20:21:43.504Z,13.39
2022-10-21T20:24:14.736Z,13.37
2022-10-21T20:26:44.679Z,13.36
2022-10-21T20:29:13.217Z,13.38
2022-10-21T20:31:41.248Z,13.36
2022-10-21T20:34:09.259Z,13.36
2022-10-21T20:36:37.203Z,13.34
2022-10-21T20:39:06.691Z,13.33
2022-10-21T20:41:37.387Z,13.30
2022-10-21T20:44:07.051Z,13.30
2022-10-21T20:46:36.249Z,13.32
2022-10-21T20:49:05.466Z,13.26
2022-10-21T20:51:33.859Z,13.26
2022-10-21T20:54:03.340Z,13.24
2022-10-21T20:56:34.872Z,13.11
2022-10-21T20:59:03.512Z,13.16
2022-10-21T21:01:34.156Z,13.17
2022-10-21T21:04:05.336Z,13.15
2022-10-21T21:06:37.337Z,13.16
2022-10-21T21:09:29.425Z,13.10
2022-10-21T21:11:55.044Z,13.09
2022-10-21T21:14:23.191Z,13.06
2022-10-21T21:16:51.130Z,13.05
2022-10-21T21:19:20.678Z,12.97
2022-10-21T21:21:49.417Z,12.75
2022-10-21T21:24:17.433Z,12.89
2022-10-21T21:26:45.393Z,12.83
2022-10-21T21:29:15.157Z,12.79
2022-10-21T21:31:43.424Z,12.68
2022-10-21T21:34:11.827Z,12.57
2022-10-21T21:36:39.790Z,12.44
2022-10-21T21:39:09.142Z,12.32
2022-10-21T21:41:37.260Z,12.22
2022-10-21T21:44:06.256Z,12.13
2022-10-21T21:46:35.543Z,12.03
2022-10-21T21:49:06.245Z,11.94
2022-10-21T21:51:36.487Z,11.86
2022-10-21T21:54:07.619Z,11.80
2022-10-21T21:56:36.101Z,11.76
2022-10-21T21:59:04.499Z,11.74
2022-10-21T22:01:32.576Z,11.77
2022-10-21T22:04:02.360Z,11.78
2022-10-21T22:06:33.360Z,11.69
2022-10-21T22:09:02.381Z,11.68
2022-10-21T22:11:32.303Z,11.69
2022-10-21T22:14:00.766Z,11.73
2022-10-21T22:16:30.398Z,11.76
2022-10-21T22:19:00.669Z,11.80
2022-10-21T22:21:31.333Z,11.84
2022-10-21T22:23:59.396Z,11.86
2022-10-21T22:26:27.677Z,11.90
2022-10-21T22:28:55.864Z,11.97
2022-10-21T22:31:29.175Z,11.99
2022-10-21T22:34:00.162Z,12.08
2022-10-21T22:36:28.355Z,12.14
2022-10-21T22:38:58.061Z,12.25
2022-10-21T22:41:26.352Z,12.34
2022-10-21T22:43:54.314Z,12.43
2022-10-21T22:46:34.315Z,12.49
2022-10-21T22:49:03.920Z,12.54
2022-10-21T22:51:32.104Z,12.61
2022-10-21T22:54:01.700Z,12.66
2022-10-21T22:56:30.136Z,12.69
2022-10-21T22:58:58.238Z,12.73
2022-10-21T23:01:29.001Z,12.75
2022-10-21T23:03:57.990Z,12.76
2022-10-21T23:06:25.930Z,12.78
2022-10-21T23:08:53.942Z,12.80
2022-10-21T23:11:23.479Z,12.83
2022-10-21T23:14:02.498Z,12.83
2022-10-21T23:16:36.198Z,12.85
2022-10-21T23:19:05.127Z,12.77
2022-10-21T23:21:33.124Z,12.88
2022-10-21T23:24:01.181Z,12.88
2022-10-21T23:26:30.507Z,12.86
2022-10-21T23:28:58.502Z,12.86
2022-10-21T23:31:26.455Z,12.89
2022-10-21T23:33:54.412Z,12.89
2022-10-21T23:36:22.815Z,12.89
2022-10-21T23:38:54.266Z,12.90
2022-10-21T23:41:22.401Z,12.90
2022-10-21T23:43:51.811Z,12.91
2022-10-21T23:46:19.819Z,12.90
2022-10-21T23:48:48.180Z,12.92
2022-10-21T23:51:16.133Z,12.92
2022-10-21T23:53:44.116Z,12.91
2022-10-21T23:56:12.085Z,12.91
2022-10-21T23:58:40.068Z,12.91
